This is the latest recevied weather packets stored in our database for station/object W6MAF. If no packets are shown the sender has not sent any weather packets the latest 10 day(s).
| Time | Temp. | Humidity | Pressure | Rain* | Wind** | Luminosity | Snow |
|---|---|---|---|---|---|---|---|
| 1777843834 | 17.78° C | 25% | - | 0 mm | 10.28 m/s, 207° | - | - |
| 1777843792 | 17.78° C | 25% | - | 0 mm | 10.28 m/s, 207° | - | - |
| 1777843494 | 18.33° C | 22% | - | 0 mm | 11.18 m/s, 212° | - | - |
| 1777843197 | 18.33° C | 23% | - | 0 mm | 10.73 m/s, 222° | - | - |
| 1777842896 | 18.33° C | 23% | - | 0 mm | 12.07 m/s, 222° | - | - |
| 1777842300 | 18.89° C | 20% | - | 0 mm | 11.62 m/s, 193° | - | - |
| 1777842003 | 18.89° C | 21% | - | 0 mm | 9.83 m/s, 253° | - | - |
| 1777841705 | 18.89° C | 22% | - | 0 mm | 9.83 m/s, 200° | - | - |
| 1777841407 | 18.89° C | 32% | - | 0 mm | 6.71 m/s, 210° | - | - |
| 1777841106 | 18.89° C | 33% | - | 0 mm | 7.15 m/s, 232° | - | - |
| 1777840809 | 18.89° C | 34% | - | 0 mm | 8.49 m/s, 205° | - | - |
| 1777840511 | 18.89° C | 36% | - | 0 mm | 6.26 m/s, 222° | - | - |
| 1777840213 | 18.33° C | 36% | - | 0 mm | 8.05 m/s, 250° | - | - |
| 1777839916 | 18.33° C | 35% | - | 0 mm | 8.49 m/s, 232° | - | - |
| 1777839618 | 18.33° C | 34% | - | 0 mm | 9.83 m/s, 246° | - | - |
| 1777839317 | 18.33° C | 30% | - | 0 mm | 8.94 m/s, 194° | - | - |
| 1777839019 | 18.33° C | 31% | - | 0 mm | 8.94 m/s, 219° | - | - |
| 1777838722 | 17.78° C | 32% | - | 0 mm | 8.49 m/s, 235° | - | - |
| 1777838424 | 17.78° C | 33% | - | 0 mm | 8.05 m/s, 210° | - | - |
| 1777837829 | 17.22° C | 32% | - | 0 mm | 7.6 m/s, 174° | - | - |
| 1777837528 | 17.22° C | 32% | - | 0 mm | 8.49 m/s, 193° | - | - |
| 1777837230 | 17.22° C | 31% | - | 0 mm | 8.94 m/s, 224° | - | - |
| 1777836964 | 17.22° C | 31% | - | 0 mm | 6.71 m/s, 172° | - | - |
| 1777836932 | 17.22° C | 31% | - | 0 mm | 6.71 m/s, 172° | - | - |
| 1777836635 | 17.78° C | 32% | - | 0 mm | 5.81 m/s, 167° | - | - |
* Rain latest hour (hover to see other rain measurements)
** Current wind speed in m/s (hover to see current wind gust speed)